sensor_id;sensor_type;location;lat;lon;timestamp;pressure;altitude;pressure_sealevel;temperature;humidity
19259;BME280;9763;48.780;9.212;2022-10-12T00:01:26;99045.38;;;17.57;75.90
19259;BME280;9763;48.780;9.212;2022-10-12T00:04:53;99037.94;;;17.51;76.69
19259;BME280;9763;48.780;9.212;2022-10-12T00:08:16;99038.47;;;17.45;76.01
19259;BME280;9763;48.780;9.212;2022-10-12T00:11:41;99033.69;;;17.39;76.76
19259;BME280;9763;48.780;9.212;2022-10-12T00:15:06;99042.72;;;17.37;76.34
19259;BME280;9763;48.780;9.212;2022-10-12T00:18:29;99038.66;;;17.33;76.10
19259;BME280;9763;48.780;9.212;2022-10-12T00:21:53;99038.16;;;17.27;76.29
19259;BME280;9763;48.780;9.212;2022-10-12T00:25:16;99033.53;;;17.20;76.85
19259;BME280;9763;48.780;9.212;2022-10-12T00:28:41;99042.66;;;17.16;76.38
19259;BME280;9763;48.780;9.212;2022-10-12T00:32:05;99037.06;;;17.09;76.10
19259;BME280;9763;48.780;9.212;2022-10-12T00:35:28;99027.97;;;17.02;76.64
19259;BME280;9763;48.780;9.212;2022-10-12T00:38:54;99035.19;;;17.00;76.57
19259;BME280;9763;48.780;9.212;2022-10-12T00:42:19;99020.06;;;16.91;76.48
19259;BME280;9763;48.780;9.212;2022-10-12T00:45:44;99025.50;;;16.89;76.27
19259;BME280;9763;48.780;9.212;2022-10-12T00:49:13;99027.03;;;16.92;76.61
19259;BME280;9763;48.780;9.212;2022-10-12T00:52:55;99027.31;;;16.89;76.64
19259;BME280;9763;48.780;9.212;2022-10-12T00:56:23;99030.19;;;16.86;76.02
19259;BME280;9763;48.780;9.212;2022-10-12T00:59:51;99020.72;;;16.83;75.99
19259;BME280;9763;48.780;9.212;2022-10-12T01:03:21;99025.25;;;16.81;76.04
19259;BME280;9763;48.780;9.212;2022-10-12T01:06:45;99033.28;;;16.80;76.66
19259;BME280;9763;48.780;9.212;2022-10-12T01:10:09;99026.50;;;16.77;76.69
19259;BME280;9763;48.780;9.212;2022-10-12T01:13:32;99031.16;;;16.74;76.60
19259;BME280;9763;48.780;9.212;2022-10-12T01:17:05;99032.13;;;16.73;76.48
19259;BME280;9763;48.780;9.212;2022-10-12T01:21:00;99031.53;;;16.69;77.04
19259;BME280;9763;48.780;9.212;2022-10-12T01:24:49;99029.16;;;16.66;76.87
19259;BME280;9763;48.780;9.212;2022-10-12T01:28:22;99041.50;;;16.66;76.62
19259;BME280;9763;48.780;9.212;2022-10-12T01:31:57;99024.97;;;16.64;76.69
19259;BME280;9763;48.780;9.212;2022-10-12T01:35:33;99023.38;;;16.61;76.76
19259;BME280;9763;48.780;9.212;2022-10-12T01:39:09;99022.88;;;16.56;77.26
19259;BME280;9763;48.780;9.212;2022-10-12T01:42:39;99018.72;;;16.53;76.84
19259;BME280;9763;48.780;9.212;2022-10-12T01:46:50;99024.34;;;16.49;77.06
19259;BME280;9763;48.780;9.212;2022-10-12T01:50:15;99022.19;;;16.43;76.83
19259;BME280;9763;48.780;9.212;2022-10-12T01:53:45;99020.03;;;16.37;77.01
19259;BME280;9763;48.780;9.212;2022-10-12T01:57:20;99015.72;;;16.36;77.47
19259;BME280;9763;48.780;9.212;2022-10-12T02:01:00;99021.34;;;16.31;77.48
19259;BME280;9763;48.780;9.212;2022-10-12T02:04:35;99014.66;;;16.27;77.37
19259;BME280;9763;48.780;9.212;2022-10-12T02:08:08;99016.81;;;16.22;77.21
19259;BME280;9763;48.780;9.212;2022-10-12T02:11:39;99016.34;;;16.17;76.78
19259;BME280;9763;48.780;9.212;2022-10-12T02:15:07;99013.09;;;16.13;77.22
19259;BME280;9763;48.780;9.212;2022-10-12T02:18:36;99007.22;;;16.10;76.98
19259;BME280;9763;48.780;9.212;2022-10-12T02:22:06;99004.13;;;16.05;76.71
19259;BME280;9763;48.780;9.212;2022-10-12T02:25:33;98998.50;;;15.98;77.21
19259;BME280;9763;48.780;9.212;2022-10-12T02:28:59;99004.94;;;15.94;76.83
19259;BME280;9763;48.780;9.212;2022-10-12T02:32:34;99008.91;;;15.89;76.91
19259;BME280;9763;48.780;9.212;2022-10-12T02:36:04;99003.25;;;15.82;76.40
19259;BME280;9763;48.780;9.212;2022-10-12T02:39:41;99000.16;;;15.77;76.40
19259;BME280;9763;48.780;9.212;2022-10-12T02:43:14;99009.72;;;15.78;77.40
19259;BME280;9763;48.780;9.212;2022-10-12T02:46:40;99007.81;;;15.80;77.54
19259;BME280;9763;48.780;9.212;2022-10-12T02:50:07;99003.03;;;15.85;77.09
19259;BME280;9763;48.780;9.212;2022-10-12T02:53:32;99004.94;;;15.94;77.31
19259;BME280;9763;48.780;9.212;2022-10-12T02:56:57;99005.31;;;16.01;77.20
19259;BME280;9763;48.780;9.212;2022-10-12T03:00:21;98998.59;;;16.08;77.04
19259;BME280;9763;48.780;9.212;2022-10-12T03:03:45;98994.78;;;16.12;77.54
19259;BME280;9763;48.780;9.212;2022-10-12T03:07:09;98990.59;;;16.09;77.29
19259;BME280;9763;48.780;9.212;2022-10-12T03:10:32;98999.44;;;16.19;77.60
19259;BME280;9763;48.780;9.212;2022-10-12T03:13:57;99002.81;;;16.21;77.00
19259;BME280;9763;48.780;9.212;2022-10-12T03:17:21;98997.28;;;16.25;77.39
19259;BME280;9763;48.780;9.212;2022-10-12T03:20:47;99000.53;;;16.28;77.02
19259;BME280;9763;48.780;9.212;2022-10-12T03:24:10;99011.28;;;16.36;77.52
19259;BME280;9763;48.780;9.212;2022-10-12T03:27:34;99017.28;;;16.38;76.65
19259;BME280;9763;48.780;9.212;2022-10-12T03:31:01;99016.22;;;16.41;77.35
19259;BME280;9763;48.780;9.212;2022-10-12T03:34:24;99004.44;;;16.45;77.72
19259;BME280;9763;48.780;9.212;2022-10-12T03:37:48;99010.31;;;16.48;77.50
19259;BME280;9763;48.780;9.212;2022-10-12T03:41:11;99012.59;;;16.53;77.04
19259;BME280;9763;48.780;9.212;2022-10-12T03:44:35;99011.38;;;16.57;76.94
19259;BME280;9763;48.780;9.212;2022-10-12T03:48:00;99010.31;;;16.60;76.90
19259;BME280;9763;48.780;9.212;2022-10-12T03:51:26;99015.56;;;16.60;77.01
19259;BME280;9763;48.780;9.212;2022-10-12T03:54:50;99011.50;;;16.55;76.92
19259;BME280;9763;48.780;9.212;2022-10-12T03:58:14;99014.28;;;16.54;77.45
19259;BME280;9763;48.780;9.212;2022-10-12T04:01:37;99007.56;;;16.50;77.62
19259;BME280;9763;48.780;9.212;2022-10-12T04:05:03;99009.59;;;16.46;76.95
19259;BME280;9763;48.780;9.212;2022-10-12T04:08:27;99008.31;;;16.41;77.43
19259;BME280;9763;48.780;9.212;2022-10-12T04:11:52;99003.03;;;16.41;77.62
19259;BME280;9763;48.780;9.212;2022-10-12T04:15:15;99005.69;;;16.41;77.16
19259;BME280;9763;48.780;9.212;2022-10-12T04:18:40;99010.69;;;16.44;77.24
19259;BME280;9763;48.780;9.212;2022-10-12T04:22:05;99007.94;;;16.45;77.13
19259;BME280;9763;48.780;9.212;2022-10-12T04:25:28;99007.69;;;16.48;77.69
19259;BME280;9763;48.780;9.212;2022-10-12T04:28:52;99006.50;;;16.52;77.75
19259;BME280;9763;48.780;9.212;2022-10-12T04:32:15;99006.63;;;16.62;77.55
19259;BME280;9763;48.780;9.212;2022-10-12T04:35:39;99012.34;;;16.67;76.83
19259;BME280;9763;48.780;9.212;2022-10-12T04:39:04;99019.91;;;16.72;77.36
19259;BME280;9763;48.780;9.212;2022-10-12T04:42:28;99006.84;;;16.70;77.33
19259;BME280;9763;48.780;9.212;2022-10-12T04:45:55;99019.16;;;16.81;76.80
19259;BME280;9763;48.780;9.212;2022-10-12T04:49:19;99025.75;;;16.86;76.67
19259;BME280;9763;48.780;9.212;2022-10-12T04:52:43;99013.28;;;16.88;76.63
19259;BME280;9763;48.780;9.212;2022-10-12T04:56:08;99021.63;;;16.93;77.33
19259;BME280;9763;48.780;9.212;2022-10-12T04:59:31;99016.22;;;16.95;77.19
19259;BME280;9763;48.780;9.212;2022-10-12T05:02:55;99025.72;;;16.98;77.25
19259;BME280;9763;48.780;9.212;2022-10-12T05:06:18;99023.91;;;16.98;76.57
19259;BME280;9763;48.780;9.212;2022-10-12T05:09:42;99027.81;;;17.04;76.55
19259;BME280;9763;48.780;9.212;2022-10-12T05:13:07;99021.47;;;17.06;76.58
19259;BME280;9763;48.780;9.212;2022-10-12T05:16:31;99026.63;;;17.08;76.29
19259;BME280;9763;48.780;9.212;2022-10-12T05:19:54;99028.19;;;17.10;76.70
19259;BME280;9763;48.780;9.212;2022-10-12T05:23:18;99026.38;;;17.11;76.63
19259;BME280;9763;48.780;9.212;2022-10-12T05:26:41;99027.09;;;17.13;77.28
19259;BME280;9763;48.780;9.212;2022-10-12T05:30:08;99025.31;;;17.13;76.51
19259;BME280;9763;48.780;9.212;2022-10-12T05:33:32;99018.06;;;17.15;77.27
19259;BME280;9763;48.780;9.212;2022-10-12T05:36:56;99024.47;;;17.13;77.02
19259;BME280;9763;48.780;9.212;2022-10-12T05:40:21;99026.81;;;17.16;77.28
19259;BME280;9763;48.780;9.212;2022-10-12T05:43:46;99025.75;;;17.18;76.87
19259;BME280;9763;48.780;9.212;2022-10-12T05:47:11;99028.63;;;17.15;76.46
19259;BME280;9763;48.780;9.212;2022-10-12T05:50:34;99019.88;;;17.15;76.76
19259;BME280;9763;48.780;9.212;2022-10-12T05:53:58;99029.63;;;17.14;77.18
19259;BME280;9763;48.780;9.212;2022-10-12T05:57:22;99036.69;;;17.14;77.24
19259;BME280;9763;48.780;9.212;2022-10-12T06:00:45;99030.56;;;17.13;77.11
19259;BME280;9763;48.780;9.212;2022-10-12T06:04:10;99036.53;;;17.15;76.66
19259;BME280;9763;48.780;9.212;2022-10-12T06:07:34;99030.56;;;17.13;76.76
19259;BME280;9763;48.780;9.212;2022-10-12T06:10:58;99035.56;;;17.16;77.34
19259;BME280;9763;48.780;9.212;2022-10-12T06:14:22;99036.28;;;17.18;76.74
19259;BME280;9763;48.780;9.212;2022-10-12T06:17:46;99029.22;;;17.19;77.32
19259;BME280;9763;48.780;9.212;2022-10-12T06:21:11;99031.38;;;17.25;76.74
19259;BME280;9763;48.780;9.212;2022-10-12T06:24:54;99031.09;;;17.28;77.05
19259;BME280;9763;48.780;9.212;2022-10-12T06:28:19;99037.56;;;17.35;77.02
19259;BME280;9763;48.780;9.212;2022-10-12T06:31:43;99037.31;;;17.38;77.17
19259;BME280;9763;48.780;9.212;2022-10-12T06:35:12;99042.44;;;17.40;77.50
19259;BME280;9763;48.780;9.212;2022-10-12T06:38:38;99043.16;;;17.42;77.52
19259;BME280;9763;48.780;9.212;2022-10-12T06:42:02;99049.50;;;17.50;76.86
19259;BME280;9763;48.780;9.212;2022-10-12T06:45:26;99053.41;;;17.56;76.89
19259;BME280;9763;48.780;9.212;2022-10-12T06:48:49;99044.03;;;17.63;77.26
19259;BME280;9763;48.780;9.212;2022-10-12T06:52:13;99048.81;;;17.69;76.92
19259;BME280;9763;48.780;9.212;2022-10-12T06:55:39;99047.72;;;17.72;76.91
19259;BME280;9763;48.780;9.212;2022-10-12T06:59:03;99052.09;;;17.82;77.04
19259;BME280;9763;48.780;9.212;2022-10-12T07:02:26;99049.22;;;17.85;76.95
19259;BME280;9763;48.780;9.212;2022-10-12T07:05:50;99051.44;;;17.90;76.55
19259;BME280;9763;48.780;9.212;2022-10-12T07:09:15;99056.22;;;17.96;76.69
19259;BME280;9763;48.780;9.212;2022-10-12T07:12:39;99054.97;;;18.00;76.77
19259;BME280;9763;48.780;9.212;2022-10-12T07:16:04;99048.72;;;18.01;76.97
19259;BME280;9763;48.780;9.212;2022-10-12T07:19:27;99054.47;;;18.06;77.21
19259;BME280;9763;48.780;9.212;2022-10-12T07:22:52;99047.25;;;18.08;77.20
19259;BME280;9763;48.780;9.212;2022-10-12T07:26:15;99053.16;;;18.21;77.33
19259;BME280;9763;48.780;9.212;2022-10-12T07:29:40;99056.34;;;18.25;76.56
19259;BME280;9763;48.780;9.212;2022-10-12T07:33:03;99058.72;;;18.28;77.22
19259;BME280;9763;48.780;9.212;2022-10-12T07:36:27;99049.59;;;18.32;76.42
19259;BME280;9763;48.780;9.212;2022-10-12T07:40:10;99052.78;;;18.35;77.05
19259;BME280;9763;48.780;9.212;2022-10-12T07:43:34;99054.19;;;18.40;76.77
19259;BME280;9763;48.780;9.212;2022-10-12T07:46:59;99047.97;;;18.50;76.99
19259;BME280;9763;48.780;9.212;2022-10-12T07:50:23;99042.47;;;18.63;77.07
19259;BME280;9763;48.780;9.212;2022-10-12T07:53:47;99043.91;;;18.77;77.03
19259;BME280;9763;48.780;9.212;2022-10-12T07:57:11;99050.22;;;18.95;77.13
19259;BME280;9763;48.780;9.212;2022-10-12T08:00:35;99055.81;;;19.11;76.21
19259;BME280;9763;48.780;9.212;2022-10-12T08:04:01;99045.91;;;19.23;76.00
19259;BME280;9763;48.780;9.212;2022-10-12T08:07:24;99048.16;;;19.37;75.86
19259;BME280;9763;48.780;9.212;2022-10-12T08:10:48;99048.47;;;19.53;75.94
19259;BME280;9763;48.780;9.212;2022-10-12T08:14:14;99051.53;;;19.68;76.20
19259;BME280;9763;48.780;9.212;2022-10-12T08:17:38;99046.75;;;19.81;76.38
19259;BME280;9763;48.780;9.212;2022-10-12T08:21:06;99049.66;;;19.97;76.22
19259;BME280;9763;48.780;9.212;2022-10-12T08:24:30;99051.13;;;20.19;76.33
19259;BME280;9763;48.780;9.212;2022-10-12T08:27:53;99056.41;;;20.38;76.21
19259;BME280;9763;48.780;9.212;2022-10-12T08:31:17;99057.97;;;20.59;76.07
19259;BME280;9763;48.780;9.212;2022-10-12T08:34:40;99053.56;;;20.77;75.65
19259;BME280;9763;48.780;9.212;2022-10-12T08:38:05;99055.94;;;20.98;75.46
19259;BME280;9763;48.780;9.212;2022-10-12T08:41:43;99051.81;;;21.13;75.88
19259;BME280;9763;48.780;9.212;2022-10-12T08:45:26;99051.69;;;21.32;75.44
19259;BME280;9763;48.780;9.212;2022-10-12T08:48:58;99052.34;;;21.52;74.96
19259;BME280;9763;48.780;9.212;2022-10-12T08:52:30;99045.34;;;21.69;74.71
19259;BME280;9763;48.780;9.212;2022-10-12T08:55:56;99039.66;;;21.89;74.91
19259;BME280;9763;48.780;9.212;2022-10-12T08:59:20;99044.50;;;22.12;74.75
19259;BME280;9763;48.780;9.212;2022-10-12T09:02:54;99034.47;;;22.32;74.29
19259;BME280;9763;48.780;9.212;2022-10-12T09:06:21;99032.00;;;22.38;73.61
19259;BME280;9763;48.780;9.212;2022-10-12T09:10:02;99034.50;;;22.40;73.86
19259;BME280;9763;48.780;9.212;2022-10-12T09:13:41;99035.34;;;22.40;73.69
19259;BME280;9763;48.780;9.212;2022-10-12T09:17:23;99039.81;;;22.32;73.63
19259;BME280;9763;48.780;9.212;2022-10-12T09:20:51;99037.56;;;22.19;73.76
19259;BME280;9763;48.780;9.212;2022-10-12T09:24:18;99042.31;;;22.07;73.23
19259;BME280;9763;48.780;9.212;2022-10-12T09:27:45;99039.59;;;21.99;73.39
19259;BME280;9763;48.780;9.212;2022-10-12T09:31:30;99052.63;;;21.84;73.22
19259;BME280;9763;48.780;9.212;2022-10-12T09:34:59;99050.13;;;21.65;73.12
19259;BME280;9763;48.780;9.212;2022-10-12T09:38:23;99050.91;;;21.58;73.86
19259;BME280;9763;48.780;9.212;2022-10-12T09:41:48;99051.19;;;21.54;73.62
19259;BME280;9763;48.780;9.212;2022-10-12T09:45:16;99063.94;;;21.51;73.51
19259;BME280;9763;48.780;9.212;2022-10-12T09:48:58;99050.75;;;21.41;73.70
19259;BME280;9763;48.780;9.212;2022-10-12T09:52:27;99047.50;;;21.30;73.51
19259;BME280;9763;48.780;9.212;2022-10-12T09:55:56;99057.22;;;21.21;74.12
19259;BME280;9763;48.780;9.212;2022-10-12T09:59:27;99054.97;;;21.16;74.46
19259;BME280;9763;48.780;9.212;2022-10-12T10:02:52;99053.28;;;21.15;74.19
19259;BME280;9763;48.780;9.212;2022-10-12T10:06:23;99048.47;;;21.11;74.44
19259;BME280;9763;48.780;9.212;2022-10-12T10:10:04;99045.81;;;21.11;73.94
19259;BME280;9763;48.780;9.212;2022-10-12T10:13:32;99051.09;;;21.11;74.59
19259;BME280;9763;48.780;9.212;2022-10-12T10:16:59;99050.56;;;21.07;74.76
19259;BME280;9763;48.780;9.212;2022-10-12T10:20:29;99049.59;;;21.08;74.47
19259;BME280;9763;48.780;9.212;2022-10-12T10:23:58;99045.06;;;21.18;74.03
19259;BME280;9763;48.780;9.212;2022-10-12T10:27:33;99049.56;;;21.36;74.06
19259;BME280;9763;48.780;9.212;2022-10-12T10:31:01;99048.34;;;21.48;74.29
19259;BME280;9763;48.780;9.212;2022-10-12T10:34:25;99051.25;;;21.63;73.66
19259;BME280;9763;48.780;9.212;2022-10-12T10:37:53;99058.47;;;21.70;73.66
19259;BME280;9763;48.780;9.212;2022-10-12T10:41:23;99058.22;;;21.81;73.80
19259;BME280;9763;48.780;9.212;2022-10-12T10:44:51;99053.19;;;21.96;73.31
19259;BME280;9763;48.780;9.212;2022-10-12T10:48:20;99047.72;;;21.98;73.44
19259;BME280;9763;48.780;9.212;2022-10-12T10:51:49;99045.28;;;22.04;73.80
19259;BME280;9763;48.780;9.212;2022-10-12T10:55:20;99046.53;;;22.18;72.90
19259;BME280;9763;48.780;9.212;2022-10-12T10:58:50;99047.78;;;22.32;73.31
19259;BME280;9763;48.780;9.212;2022-10-12T11:02:23;99044.47;;;22.38;72.84
19259;BME280;9763;48.780;9.212;2022-10-12T11:05:53;99040.97;;;22.37;73.05
19259;BME280;9763;48.780;9.212;2022-10-12T11:09:23;99048.50;;;22.42;72.98
19259;BME280;9763;48.780;9.212;2022-10-12T11:13:00;99054.16;;;22.47;72.84
19259;BME280;9763;48.780;9.212;2022-10-12T11:16:32;99041.53;;;22.49;72.88
19259;BME280;9763;48.780;9.212;2022-10-12T11:20:09;99037.03;;;22.49;72.30
19259;BME280;9763;48.780;9.212;2022-10-12T11:23:48;99039.56;;;22.51;72.46
19259;BME280;9763;48.780;9.212;2022-10-12T11:27:19;99042.88;;;22.53;72.61
19259;BME280;9763;48.780;9.212;2022-10-12T11:30:47;99026.09;;;22.52;71.99
19259;BME280;9763;48.780;9.212;2022-10-12T11:34:17;99023.94;;;22.56;71.83
19259;BME280;9763;48.780;9.212;2022-10-12T11:37:48;99022.78;;;22.58;71.86
19259;BME280;9763;48.780;9.212;2022-10-12T11:41:16;99023.59;;;22.59;72.24
19259;BME280;9763;48.780;9.212;2022-10-12T11:45:00;99015.31;;;22.62;71.87
19259;BME280;9763;48.780;9.212;2022-10-12T11:48:33;99009.31;;;22.60;71.84
19259;BME280;9763;48.780;9.212;2022-10-12T11:52:07;99007.47;;;22.60;72.17
19259;BME280;9763;48.780;9.212;2022-10-12T11:55:47;99005.34;;;22.64;72.30
19259;BME280;9763;48.780;9.212;2022-10-12T11:59:20;98997.19;;;22.57;72.50
19259;BME280;9763;48.780;9.212;2022-10-12T12:02:52;98999.66;;;22.59;72.24
19259;BME280;9763;48.780;9.212;2022-10-12T12:06:53;98999.47;;;22.52;72.01
19259;BME280;9763;48.780;9.212;2022-10-12T12:10:53;98994.63;;;22.48;72.46
19259;BME280;9763;48.780;9.212;2022-10-12T12:14:47;98994.31;;;22.51;72.60
19259;BME280;9763;48.780;9.212;2022-10-12T12:18:15;98994.69;;;22.56;72.24
19259;BME280;9763;48.780;9.212;2022-10-12T12:22:33;98990.03;;;22.58;72.08
19259;BME280;9763;48.780;9.212;2022-10-12T12:26:17;98977.72;;;22.65;72.00
19259;BME280;9763;48.780;9.212;2022-10-12T12:29:50;98979.25;;;22.68;71.76
19259;BME280;9763;48.780;9.212;2022-10-12T12:33:29;98982.38;;;22.71;71.99
19259;BME280;9763;48.780;9.212;2022-10-12T12:36:53;98984.75;;;22.74;71.90
19259;BME280;9763;48.780;9.212;2022-10-12T12:40:22;98975.91;;;22.74;71.83
19259;BME280;9763;48.780;9.212;2022-10-12T12:43:59;98980.13;;;22.76;71.91
19259;BME280;9763;48.780;9.212;2022-10-12T12:47:38;98964.81;;;22.78;71.41
19259;BME280;9763;48.780;9.212;2022-10-12T12:51:10;98965.81;;;22.77;72.13
19259;BME280;9763;48.780;9.212;2022-10-12T12:54:41;98970.75;;;22.72;71.63
19259;BME280;9763;48.780;9.212;2022-10-12T12:58:38;98972.25;;;22.75;72.38
19259;BME280;9763;48.780;9.212;2022-10-12T13:10:46;98961.03;;;23.05;72.27
19259;BME280;9763;48.780;9.212;2022-10-12T13:14:44;98953.69;;;23.07;71.66
19259;BME280;9763;48.780;9.212;2022-10-12T13:18:48;98957.19;;;22.99;72.00
19259;BME280;9763;48.780;9.212;2022-10-12T13:22:24;98956.53;;;22.81;72.37
19259;BME280;9763;48.780;9.212;2022-10-12T13:25:53;98959.41;;;22.62;72.34
19259;BME280;9763;48.780;9.212;2022-10-12T13:29:27;98952.41;;;22.45;72.81
19259;BME280;9763;48.780;9.212;2022-10-12T13:33:02;98947.72;;;22.39;72.42
19259;BME280;9763;48.780;9.212;2022-10-12T13:36:31;98943.06;;;22.33;72.92
19259;BME280;9763;48.780;9.212;2022-10-12T13:39:57;98946.31;;;22.18;72.80
19259;BME280;9763;48.780;9.212;2022-10-12T13:43:30;98940.09;;;22.02;72.57
19259;BME280;9763;48.780;9.212;2022-10-12T13:46:57;98941.63;;;21.86;72.69
19259;BME280;9763;48.780;9.212;2022-10-12T13:50:22;98945.41;;;21.76;72.78
19259;BME280;9763;48.780;9.212;2022-10-12T13:53:47;98945.81;;;21.63;73.66
19259;BME280;9763;48.780;9.212;2022-10-12T13:57:20;98946.41;;;21.49;73.01
19259;BME280;9763;48.780;9.212;2022-10-12T14:00:47;98937.63;;;21.31;73.71
19259;BME280;9763;48.780;9.212;2022-10-12T14:04:10;98933.81;;;21.15;73.41
19259;BME280;9763;48.780;9.212;2022-10-12T14:07:37;98939.50;;;21.03;73.46
19259;BME280;9763;48.780;9.212;2022-10-12T14:11:04;98942.09;;;20.95;73.86
19259;BME280;9763;48.780;9.212;2022-10-12T14:14:33;98938.22;;;20.89;73.88
19259;BME280;9763;48.780;9.212;2022-10-12T14:17:57;98938.56;;;20.86;73.84
19259;BME280;9763;48.780;9.212;2022-10-12T14:21:24;98935.97;;;20.76;74.31
19259;BME280;9763;48.780;9.212;2022-10-12T14:24:50;98929.75;;;20.68;74.43
19259;BME280;9763;48.780;9.212;2022-10-12T14:28:27;98927.69;;;20.62;73.79
19259;BME280;9763;48.780;9.212;2022-10-12T14:31:53;98920.34;;;20.56;74.79
19259;BME280;9763;48.780;9.212;2022-10-12T14:35:26;98918.97;;;20.52;74.52
19259;BME280;9763;48.780;9.212;2022-10-12T14:38:51;98919.56;;;20.45;74.63
19259;BME280;9763;48.780;9.212;2022-10-12T14:42:20;98914.03;;;20.39;75.27
19259;BME280;9763;48.780;9.212;2022-10-12T14:45:46;98924.78;;;20.37;74.73
19259;BME280;9763;48.780;9.212;2022-10-12T14:49:16;98923.38;;;20.33;75.44
19259;BME280;9763;48.780;9.212;2022-10-12T14:52:45;98918.22;;;20.32;75.57
19259;BME280;9763;48.780;9.212;2022-10-12T14:56:18;98917.25;;;20.33;75.04
19259;BME280;9763;48.780;9.212;2022-10-12T14:59:42;98912.09;;;20.31;74.97
19259;BME280;9763;48.780;9.212;2022-10-12T15:03:08;98907.09;;;20.28;75.35
19259;BME280;9763;48.780;9.212;2022-10-12T15:06:31;98912.69;;;20.25;75.18
19259;BME280;9763;48.780;9.212;2022-10-12T15:09:55;98912.97;;;20.22;74.76
19259;BME280;9763;48.780;9.212;2022-10-12T15:13:18;98905.47;;;20.18;75.44
19259;BME280;9763;48.780;9.212;2022-10-12T15:16:42;98907.59;;;20.14;74.75
19259;BME280;9763;48.780;9.212;2022-10-12T15:20:09;98909.69;;;20.10;74.98
19259;BME280;9763;48.780;9.212;2022-10-12T15:23:33;98905.38;;;20.09;75.11
19259;BME280;9763;48.780;9.212;2022-10-12T15:26:56;98901.19;;;20.07;74.69
19259;BME280;9763;48.780;9.212;2022-10-12T15:30:20;98893.72;;;20.02;75.10
19259;BME280;9763;48.780;9.212;2022-10-12T15:33:45;98892.31;;;19.98;74.97
19259;BME280;9763;48.780;9.212;2022-10-12T15:37:10;98899.72;;;19.95;74.57
19259;BME280;9763;48.780;9.212;2022-10-12T15:40:34;98904.50;;;19.91;75.49
19259;BME280;9763;48.780;9.212;2022-10-12T15:43:59;98899.63;;;19.87;75.17
19259;BME280;9763;48.780;9.212;2022-10-12T15:47:23;98902.72;;;19.82;74.94
19259;BME280;9763;48.780;9.212;2022-10-12T15:50:48;98907.63;;;19.77;75.32
19259;BME280;9763;48.780;9.212;2022-10-12T15:54:13;98906.22;;;19.73;75.44
19259;BME280;9763;48.780;9.212;2022-10-12T15:57:37;98900.56;;;19.68;75.16
19259;BME280;9763;48.780;9.212;2022-10-12T16:01:01;98891.38;;;19.62;74.78
19259;BME280;9763;48.780;9.212;2022-10-12T16:04:24;98887.63;;;19.55;74.91
19259;BME280;9763;48.780;9.212;2022-10-12T16:07:48;98888.19;;;19.49;74.63
19259;BME280;9763;48.780;9.212;2022-10-12T16:11:16;98896.00;;;19.41;74.84
19259;BME280;9763;48.780;9.212;2022-10-12T16:14:40;98895.34;;;19.29;75.04
19259;BME280;9763;48.780;9.212;2022-10-12T16:18:04;98889.22;;;19.19;74.98
19259;BME280;9763;48.780;9.212;2022-10-12T16:21:29;98883.94;;;19.10;75.25
19259;BME280;9763;48.780;9.212;2022-10-12T16:24:53;98890.06;;;19.00;75.00
19259;BME280;9763;48.780;9.212;2022-10-12T16:28:18;98896.09;;;18.93;75.72
19259;BME280;9763;48.780;9.212;2022-10-12T16:31:42;98899.41;;;18.85;74.98
19259;BME280;9763;48.780;9.212;2022-10-12T16:35:07;98909.84;;;18.77;75.52
19259;BME280;9763;48.780;9.212;2022-10-12T16:38:30;98905.97;;;18.72;75.04
19259;BME280;9763;48.780;9.212;2022-10-12T16:41:54;98910.97;;;18.65;75.49
19259;BME280;9763;48.780;9.212;2022-10-12T16:45:19;98913.56;;;18.55;74.98
19259;BME280;9763;48.780;9.212;2022-10-12T16:48:43;98907.31;;;18.47;75.76
19259;BME280;9763;48.780;9.212;2022-10-12T16:52:07;98913.25;;;18.39;75.66
19259;BME280;9763;48.780;9.212;2022-10-12T16:55:31;98900.03;;;18.29;75.50
19259;BME280;9763;48.780;9.212;2022-10-12T16:58:54;98893.34;;;18.25;75.39
19259;BME280;9763;48.780;9.212;2022-10-12T17:02:20;98909.06;;;18.27;75.96
19259;BME280;9763;48.780;9.212;2022-10-12T17:05:44;98901.41;;;18.24;75.74
19259;BME280;9763;48.780;9.212;2022-10-12T17:09:08;98907.81;;;18.21;76.04
19259;BME280;9763;48.780;9.212;2022-10-12T17:12:32;98908.22;;;18.17;75.64
19259;BME280;9763;48.780;9.212;2022-10-12T17:15:57;98911.94;;;18.14;75.67
19259;BME280;9763;48.780;9.212;2022-10-12T17:19:37;98912.63;;;18.07;76.01
19259;BME280;9763;48.780;9.212;2022-10-12T17:23:02;98921.91;;;18.01;75.41
19259;BME280;9763;48.780;9.212;2022-10-12T17:26:26;98905.78;;;17.94;76.14
19259;BME280;9763;48.780;9.212;2022-10-12T17:29:51;98907.97;;;17.89;75.94
19259;BME280;9763;48.780;9.212;2022-10-12T17:33:15;98903.13;;;17.85;76.07
19259;BME280;9763;48.780;9.212;2022-10-12T17:36:40;98907.69;;;17.83;75.47
19259;BME280;9763;48.780;9.212;2022-10-12T17:40:05;98912.53;;;17.78;76.13
19259;BME280;9763;48.780;9.212;2022-10-12T17:43:31;98910.16;;;17.75;75.65
19259;BME280;9763;48.780;9.212;2022-10-12T17:46:54;98923.50;;;17.73;76.20
19259;BME280;9763;48.780;9.212;2022-10-12T17:50:19;98922.06;;;17.69;76.27
19259;BME280;9763;48.780;9.212;2022-10-12T17:53:44;98926.78;;;17.66;76.31
19259;BME280;9763;48.780;9.212;2022-10-12T17:57:08;98927.88;;;17.63;76.47
19259;BME280;9763;48.780;9.212;2022-10-12T18:00:31;98919.25;;;17.61;76.41
19259;BME280;9763;48.780;9.212;2022-10-12T18:03:58;98924.78;;;17.58;75.75
19259;BME280;9763;48.780;9.212;2022-10-12T18:07:22;98920.59;;;17.55;75.90
19259;BME280;9763;48.780;9.212;2022-10-12T18:10:47;98922.63;;;17.52;76.43
19259;BME280;9763;48.780;9.212;2022-10-12T18:14:11;98932.34;;;17.51;76.23
19259;BME280;9763;48.780;9.212;2022-10-12T18:17:36;98932.66;;;17.48;75.68
19259;BME280;9763;48.780;9.212;2022-10-12T18:21:04;98930.38;;;17.44;75.34
19259;BME280;9763;48.780;9.212;2022-10-12T18:24:28;98925.63;;;17.38;75.93
19259;BME280;9763;48.780;9.212;2022-10-12T18:27:53;98917.25;;;17.33;75.44
19259;BME280;9763;48.780;9.212;2022-10-12T18:31:19;98927.22;;;17.29;75.91
19259;BME280;9763;48.780;9.212;2022-10-12T18:34:43;98923.19;;;17.25;75.45
19259;BME280;9763;48.780;9.212;2022-10-12T18:38:06;98927.63;;;17.24;76.37
19259;BME280;9763;48.780;9.212;2022-10-12T18:41:30;98927.63;;;17.24;76.34
19259;BME280;9763;48.780;9.212;2022-10-12T18:44:55;98935.69;;;17.23;76.10